Canada's Largest FIR

CZEG Edmonton


  Upcoming Events

Northern Lights Tuesdays  January 31, 2023 23:59z
Anchor the Horse II  March 5, 2023 22:00z

  Online Controllers

No controllers online.

  View Our Airspace

  Weather

CYYC - Calgary International Airport   MVFR
CYYC 300400Z 29008KT 270V340 3SM -SN BR OVC033 M11/M18 A3005 RMK SC8 SLP270

CYEG - Edmonton International Airport   MVFR
CYEG 300400Z 31011KT 3SM -SN OVC038 M11/M13 A3007 RMK SC8 SLP249

CYXY - Whitehorse / Erik Nielsen International Airport   VFR
CYXY 300400Z 19012KT 15SM OVC110 M09/M13 A3021 RMK AC8 SLP291

CYZF - Yellowknife International Airport   VFR
CYZF 300400Z 31008KT 15SM SKC M30/M34 A3023 RMK SLP274

CYMM - Fort McMurray Airport   MVFR
CYMM 300423Z AUTO 32008KT 9SM -SN BKN029 M18/M22 A3010 RMK PRESRR SLP235

CYQF - Red Deer Regional Airport   IFR
CYQF 300456Z AUTO 29005KT 1 3/4SM -SN OVC024 M11/M13 A3005 RMK SLP245

CZVL - Edmonton / Villeneuve Airport   MVFR
CZVL 300400Z AUTO 30016G22KT 9SM -SN OVC029 M11/M13 A3006 RMK SLP240

CYBW - Calgary / Springbank Airport   VFR
CYBW 300443Z AUTO 32006KT 9SM -SN BKN048 OVC071 M13/M19 A3003 RMK SLP260

CYOD - CFB Cold Lake   VFR
CYOD 300400Z 00000KT 15SM BKN120 M23/M25 A3005 RMK AC7 DENSITY ALT -3083FT SLP240